Time;durP1;ratioP1;P1;durP2;ratioP2;P2;SDS_P1;SDS_P2;PMS_P1;PMS_P2;Temp;Humidity;BMP_temperature;BMP_pressure;BME280_temperature;BME280_humidity;BME280_pressure;Samples;Min_cycle;Max_cycle;Signal;HPM_P1;HPM_P2
2021/12/31 00:01:41;;;;;;;19.23;3.70;;;10.90;99.90;;;;;;4936783;29;20113;-80
2021/12/31 00:04:06;;;;;;;23.10;3.58;;;10.90;99.90;;;;;;4936439;29;20055;-80
2021/12/31 00:06:32;;;;;;;17.95;2.78;;;10.90;99.90;;;;;;4936153;29;20054;-80
2021/12/31 00:08:58;;;;;;;18.20;3.08;;;10.90;99.90;;;;;;4936465;29;20058;-80
2021/12/31 00:11:24;;;;;;;16.73;3.50;;;10.90;99.90;;;;;;4936250;29;20036;-80
2021/12/31 00:13:49;;;;;;;15.05;4.07;;;10.90;99.90;;;;;;4936313;29;20047;-81
2021/12/31 00:16:15;;;;;;;18.42;3.30;;;11.00;99.90;;;;;;4936488;29;20049;-80
2021/12/31 00:18:41;;;;;;;24.13;4.47;;;11.00;99.90;;;;;;4936397;29;20044;-80
2021/12/31 00:21:06;;;;;;;25.67;3.22;;;11.00;99.90;;;;;;4935952;29;20066;-80
2021/12/31 00:23:32;;;;;;;16.73;4.00;;;11.00;99.90;;;;;;4936228;29;20048;-80
2021/12/31 00:25:58;;;;;;;20.25;3.75;;;10.90;99.90;;;;;;4935980;29;20457;-81
2021/12/31 00:28:23;;;;;;;24.85;4.22;;;10.90;99.90;;;;;;4935908;29;20044;-80
2021/12/31 00:30:53;;;;;;;21.00;4.53;;;10.90;99.90;;;;;;4936179;29;20052;-80
2021/12/31 00:33:20;;;;;;;20.45;3.75;;;10.90;99.90;;;;;;4935925;29;20056;-80
2021/12/31 00:35:46;;;;;;;19.23;3.28;;;10.90;99.90;;;;;;4935773;29;20083;-80
2021/12/31 00:38:13;;;;;;;28.55;4.22;;;10.90;99.90;;;;;;4935969;29;20087;-80
2021/12/31 00:40:38;;;;;;;15.45;2.90;;;10.90;99.90;;;;;;4936025;29;20043;-80
2021/12/31 00:43:06;;;;;;;21.48;4.25;;;10.90;99.90;;;;;;4935484;29;20112;-80
2021/12/31 00:45:36;;;;;;;24.25;3.63;;;10.90;99.90;;;;;;4937039;29;20055;-80
2021/12/31 00:48:03;;;;;;;23.40;4.00;;;10.90;99.90;;;;;;4935710;29;20514;-80
2021/12/31 00:50:28;;;;;;;18.38;3.75;;;10.80;99.90;;;;;;4935747;29;20086;-80
2021/12/31 00:52:54;;;;;;;18.40;4.32;;;10.80;99.90;;;;;;4935439;29;20087;-81
2021/12/31 00:55:20;;;;;;;19.08;3.45;;;10.80;99.90;;;;;;4935769;29;20484;-81
2021/12/31 00:57:46;;;;;;;15.65;3.65;;;10.80;99.90;;;;;;4935501;29;20048;-80
2021/12/31 01:00:15;;;;;;;19.80;4.20;;;10.90;99.90;;;;;;4935774;29;20048;-80
2021/12/31 01:02:43;;;;;;;18.50;3.80;;;10.80;99.90;;;;;;4935614;29;20075;-81
2021/12/31 01:05:10;;;;;;;18.08;3.90;;;10.80;99.90;;;;;;4935011;29;20043;-80
2021/12/31 01:07:35;;;;;;;16.88;3.28;;;10.80;99.90;;;;;;4935189;29;20044;-80
2021/12/31 01:10:02;;;;;;;16.88;4.38;;;10.80;99.90;;;;;;4935297;29;20059;-80
2021/12/31 01:12:28;;;;;;;18.65;3.38;;;10.80;99.90;;;;;;4935391;29;20043;-80
2021/12/31 01:15:07;;;;;;;17.55;3.47;;;10.90;99.90;;;;;;4936341;29;20058;-80
2021/12/31 01:17:50;;;;;;;14.65;4.22;;;10.90;99.90;;;;;;4935192;29;20098;-80
2021/12/31 01:20:18;;;;;;;18.95;5.43;;;10.90;99.90;;;;;;4935557;29;20051;-80
2021/12/31 01:22:44;;;;;;;16.50;4.70;;;10.90;99.90;;;;;;4935251;29;20118;-80
2021/12/31 01:25:11;;;;;;;23.27;4.97;;;10.90;99.90;;;;;;4935239;29;20043;-80
2021/12/31 01:27:38;;;;;;;24.10;4.50;;;10.90;99.90;;;;;;4935167;29;20051;-80
2021/12/31 01:30:06;;;;;;;18.23;4.25;;;10.90;99.90;;;;;;4935089;29;20079;-80
2021/12/31 01:32:31;;;;;;;29.00;4.82;;;10.90;99.90;;;;;;4935087;29;20055;-80
2021/12/31 01:34:58;;;;;;;28.52;5.28;;;10.90;99.90;;;;;;4936477;29;20051;-80
2021/12/31 01:37:24;;;;;;;30.50;5.72;;;11.00;99.90;;;;;;4935366;29;20048;-80
2021/12/31 01:39:50;;;;;;;23.77;4.10;;;11.00;99.90;;;;;;4935096;29;20138;-80
2021/12/31 01:42:18;;;;;;;20.48;4.30;;;11.00;99.90;;;;;;4934887;29;20134;-80
2021/12/31 01:44:53;;;;;;;21.27;3.80;;;11.00;99.90;;;;;;4936364;29;20043;-81
2021/12/31 01:47:22;;;;;;;22.25;4.72;;;11.00;99.90;;;;;;4934918;29;20055;-80
2021/12/31 01:49:58;;;;;;;21.52;4.47;;;11.00;99.90;;;;;;4934995;29;20407;-80
2021/12/31 01:52:25;;;;;;;24.77;4.43;;;11.10;99.90;;;;;;4935302;29;20097;-80
2021/12/31 01:54:51;;;;;;;26.10;4.50;;;11.00;99.90;;;;;;4935075;29;20063;-80
2021/12/31 01:57:18;;;;;;;23.05;4.57;;;11.00;99.90;;;;;;4935059;29;20082;-80
2021/12/31 01:59:44;;;;;;;21.67;4.25;;;11.00;99.90;;;;;;4935067;29;20499;-80
2021/12/31 02:02:10;;;;;;;29.05;5.47;;;11.00;99.90;;;;;;4934938;29;20131;-80
2021/12/31 02:04:41;;;;;;;25.33;5.68;;;11.00;99.90;;;;;;4934919;29;20407;-80
2021/12/31 02:07:07;;;;;;;15.25;4.40;;;11.10;99.90;;;;;;4934805;29;20055;-80
2021/12/31 02:09:37;;;;;;;19.67;4.47;;;11.00;99.90;;;;;;4934956;29;20063;-80
2021/12/31 02:12:04;;;;;;;13.52;4.57;;;11.00;99.90;;;;;;4935053;29;20056;-80
2021/12/31 02:14:31;;;;;;;18.05;4.47;;;11.00;99.90;;;;;;4934780;29;20047;-80
2021/12/31 02:16:56;;;;;;;16.15;3.90;;;11.00;99.90;;;;;;4937709;29;20075;-80
2021/12/31 02:19:28;;;;;;;21.67;5.25;;;11.00;99.90;;;;;;4938676;29;20079;-80
2021/12/31 02:21:56;;;;;;;24.33;4.07;;;11.10;99.90;;;;;;4938461;29;20503;-80
2021/12/31 02:24:22;;;;;;;16.80;4.35;;;11.10;99.90;;;;;;4938136;29;20295;-80
2021/12/31 02:26:49;;;;;;;19.73;4.95;;;11.10;99.90;;;;;;4938345;29;20059;-80
2021/12/31 02:29:15;;;;;;;17.98;4.13;;;11.10;99.90;;;;;;4938153;29;20463;-81
2021/12/31 02:31:41;;;;;;;17.58;4.03;;;11.10;99.90;;;;;;4938430;29;20048;-81
2021/12/31 02:34:07;;;;;;;13.05;4.88;;;11.20;99.90;;;;;;4938161;29;20483;-80
2021/12/31 02:36:32;;;;;;;21.48;4.68;;;11.20;99.90;;;;;;4937872;29;20048;-81
2021/12/31 02:38:58;;;;;;;18.35;4.75;;;11.20;99.90;;;;;;4937894;29;20047;-81
2021/12/31 02:41:24;;;;;;;13.15;4.68;;;11.20;99.90;;;;;;4937683;29;20079;-81
2021/12/31 02:43:49;;;;;;;21.92;4.80;;;11.20;99.90;;;;;;4938946;29;20055;-81
2021/12/31 02:46:15;;;;;;;19.92;4.75;;;11.20;99.90;;;;;;4937775;29;20404;-81
2021/12/31 02:48:41;;;;;;;17.23;4.85;;;11.20;99.90;;;;;;4937864;29;20504;-81
2021/12/31 02:51:07;;;;;;;17.67;4.90;;;11.20;99.90;;;;;;4939073;29;20044;-81
2021/12/31 02:53:38;;;;;;;22.95;4.15;;;11.20;99.90;;;;;;4937656;29;20052;-81
2021/12/31 02:56:13;;;;;;;13.30;4.13;;;11.20;99.90;;;;;;4937703;29;20057;-81
2021/12/31 02:58:40;;;;;;;21.92;4.45;;;11.20;99.90;;;;;;4937692;29;20079;-81
2021/12/31 03:01:08;;;;;;;11.18;3.30;;;11.20;99.90;;;;;;4938869;29;20058;-81
2021/12/31 03:03:35;;;;;;;14.13;4.40;;;11.20;99.90;;;;;;4937621;29;20048;-80
2021/12/31 03:06:02;;;;;;;19.15;5.32;;;11.30;99.90;;;;;;4937415;29;20060;-81
2021/12/31 03:08:31;;;;;;;15.43;4.60;;;11.30;99.90;;;;;;4937359;29;20076;-81
2021/12/31 03:11:00;;;;;;;11.35;3.67;;;11.30;99.90;;;;;;4937450;29;20051;-81
2021/12/31 03:13:28;;;;;;;15.40;5.03;;;11.20;99.90;;;;;;4938859;29;20078;-81
2021/12/31 03:15:54;;;;;;;12.90;4.45;;;11.30;99.90;;;;;;4937403;29;20052;-80
2021/12/31 03:18:21;;;;;;;19.25;3.97;;;11.30;99.90;;;;;;4937492;29;20051;-81
2021/12/31 03:20:57;;;;;;;18.17;3.78;;;11.30;99.90;;;;;;4937144;29;20128;-81
2021/12/31 03:23:29;;;;;;;15.35;4.20;;;11.30;99.90;;;;;;4937247;29;20123;-81
2021/12/31 03:25:55;;;;;;;15.25;3.85;;;11.30;99.90;;;;;;4936995;29;20484;-80
2021/12/31 03:28:21;;;;;;;12.15;3.88;;;11.30;99.90;;;;;;4937073;29;20098;-80
2021/12/31 03:30:47;;;;;;;15.43;4.82;;;11.40;99.90;;;;;;4936939;29;20448;-80
2021/12/31 03:33:14;;;;;;;16.08;4.18;;;11.40;99.90;;;;;;4937221;29;20396;-80
2021/12/31 03:35:40;;;;;;;15.15;4.80;;;11.40;99.90;;;;;;4937165;29;20388;-80
2021/12/31 03:38:05;;;;;;;19.98;4.95;;;11.40;99.90;;;;;;4936942;29;20047;-80
2021/12/31 03:40:31;;;;;;;16.02;4.20;;;11.40;99.90;;;;;;4937154;29;20074;-80
2021/12/31 03:42:57;;;;;;;19.25;3.88;;;11.40;99.90;;;;;;4936683;29;20501;-80
2021/12/31 03:45:23;;;;;;;17.95;4.63;;;11.30;99.90;;;;;;4936708;29;20094;-81
2021/12/31 03:47:50;;;;;;;20.25;5.13;;;11.30;99.90;;;;;;4936662;29;20102;-81
2021/12/31 03:50:15;;;;;;;18.60;4.03;;;11.30;99.90;;;;;;4936726;29;20067;-80
2021/12/31 03:52:41;;;;;;;13.00;3.70;;;11.30;99.90;;;;;;4936619;29;20086;-80
2021/12/31 03:55:09;;;;;;;22.67;4.32;;;11.30;99.90;;;;;;4937916;29;20488;-80
2021/12/31 03:57:36;;;;;;;17.60;3.47;;;11.40;99.90;;;;;;4936856;29;20055;-81
2021/12/31 04:00:04;;;;;;;13.77;3.55;;;11.40;99.90;;;;;;4936659;29;20058;-80
2021/12/31 04:02:30;;;;;;;15.65;4.03;;;11.40;99.90;;;;;;4937530;29;20052;-80
2021/12/31 04:04:56;;;;;;;18.73;3.70;;;11.30;99.90;;;;;;4936389;29;20036;-80
2021/12/31 04:07:22;;;;;;;16.92;3.20;;;11.30;99.90;;;;;;4936491;29;20107;-80
2021/12/31 04:09:48;;;;;;;10.48;3.45;;;11.40;99.90;;;;;;4936666;29;20436;-80
2021/12/31 04:12:14;;;;;;;11.80;4.10;;;11.40;99.90;;;;;;4936601;29;20043;-80
2021/12/31 04:14:39;;;;;;;11.45;3.13;;;11.40;99.90;;;;;;4937548;29;20099;-80
2021/12/31 04:17:05;;;;;;;21.75;4.50;;;11.40;99.90;;;;;;4937507;29;20396;-80
2021/12/31 04:19:31;;;;;;;10.45;2.97;;;11.40;99.90;;;;;;4936332;29;20448;-81
2021/12/31 04:21:57;;;;;;;17.70;3.53;;;11.40;99.90;;;;;;4937425;29;20047;-80
2021/12/31 04:27:06;;;;;;;15.40;3.63;;;11.40;99.90;;;;;;4937285;29;20094;-80
2021/12/31 04:29:33;;;;;;;16.80;3.85;;;11.40;99.90;;;;;;4937108;29;20087;-80
2021/12/31 04:32:00;;;;;;;15.85;3.83;;;11.40;99.90;;;;;;4935928;29;20047;-80
2021/12/31 04:34:26;;;;;;;18.27;4.10;;;11.40;99.90;;;;;;4936183;29;20492;-80
2021/12/31 04:36:52;;;;;;;12.13;3.80;;;11.40;99.90;;;;;;4935929;29;20047;-80
2021/12/31 04:39:18;;;;;;;12.77;3.72;;;11.40;99.90;;;;;;4935266;29;20052;-80
2021/12/31 04:41:44;;;;;;;16.40;3.83;;;11.40;99.90;;;;;;4936020;29;20054;-80
2021/12/31 04:44:09;;;;;;;13.75;3.78;;;11.40;99.90;;;;;;4935596;29;20110;-80
2021/12/31 04:46:35;;;;;;;14.20;3.88;;;11.40;99.90;;;;;;4935579;29;20059;-80
2021/12/31 04:49:01;;;;;;;17.40;4.03;;;11.40;99.90;;;;;;4936884;29;20090;-80
2021/12/31 04:51:26;;;;;;;11.85;3.22;;;11.50;99.90;;;;;;4935904;29;20055;-80
2021/12/31 04:53:52;;;;;;;12.23;3.88;;;11.40;99.90;;;;;;4935891;29;20130;-80
2021/12/31 04:56:18;;;;;;;13.70;3.95;;;11.50;99.90;;;;;;4935695;29;20047;-80
2021/12/31 04:58:43;;;;;;;15.38;3.80;;;11.50;99.90;;;;;;4935659;29;20050;-81
2021/12/31 05:01:09;;;;;;;15.00;3.83;;;11.50;99.90;;;;;;4935439;29;20483;-80
2021/12/31 05:03:35;;;;;;;13.75;3.95;;;11.50;99.90;;;;;;4935480;29;20062;-80
2021/12/31 05:06:00;;;;;;;10.75;3.13;;;11.50;99.90;;;;;;4936748;29;20040;-80
2021/12/31 05:08:26;;;;;;;15.90;3.30;;;11.50;99.90;;;;;;4935392;29;20083;-81
2021/12/31 05:10:52;;;;;;;19.13;3.70;;;11.40;99.90;;;;;;4935176;29;20134;-81
2021/12/31 05:13:19;;;;;;;13.02;3.50;;;11.40;99.90;;;;;;4935271;29;20054;-81
2021/12/31 05:15:47;;;;;;;10.07;3.17;;;11.50;99.90;;;;;;4935284;29;20058;-80
2021/12/31 05:18:13;;;;;;;11.55;3.58;;;11.50;99.90;;;;;;4936810;29;20160;-81
2021/12/31 05:20:40;;;;;;;19.77;3.88;;;11.40;99.90;;;;;;4935577;29;20099;-81
2021/12/31 05:23:05;;;;;;;9.65;3.67;;;11.50;99.90;;;;;;4936019;29;20043;-81
2021/12/31 05:25:31;;;;;;;11.10;4.40;;;11.40;99.90;;;;;;4935091;29;20052;-81
2021/12/31 05:27:57;;;;;;;13.30;3.63;;;11.50;99.90;;;;;;4936316;29;20052;-81
2021/12/31 05:30:23;;;;;;;11.45;3.72;;;11.50;99.90;;;;;;4935362;29;20095;-80
2021/12/31 05:32:48;;;;;;;11.93;3.25;;;11.50;99.90;;;;;;4935435;29;20492;-80
2021/12/31 05:35:15;;;;;;;15.10;3.83;;;11.50;99.90;;;;;;4935182;29;20043;-81
2021/12/31 05:37:41;;;;;;;13.95;4.07;;;11.50;99.90;;;;;;4935189;29;20057;-81
2021/12/31 05:40:07;;;;;;;11.63;3.55;;;11.40;99.90;;;;;;4935340;29;20040;-80
2021/12/31 05:42:32;;;;;;;10.95;3.40;;;11.40;99.90;;;;;;4935948;29;20416;-80
2021/12/31 05:44:58;;;;;;;11.38;3.42;;;11.40;99.90;;;;;;4936135;29;20048;-80
2021/12/31 05:47:24;;;;;;;8.77;3.40;;;11.40;99.90;;;;;;4936359;29;20043;-80
2021/12/31 05:49:50;;;;;;;17.70;3.63;;;11.40;99.90;;;;;;4936715;29;20543;-80
2021/12/31 05:52:16;;;;;;;9.50;3.40;;;11.50;99.90;;;;;;4938705;29;20046;-80
2021/12/31 05:54:42;;;;;;;10.80;3.65;;;11.50;99.90;;;;;;4938872;29;20055;-80
2021/12/31 05:57:08;;;;;;;12.80;3.47;;;11.50;99.90;;;;;;4938678;29;20138;-80
2021/12/31 05:59:33;;;;;;;10.70;3.30;;;11.50;99.90;;;;;;4938906;29;20059;-80
2021/12/31 06:01:59;;;;;;;8.27;3.03;;;11.50;99.90;;;;;;4938680;29;20048;-80
2021/12/31 06:04:25;;;;;;;12.27;3.25;;;11.50;99.90;;;;;;4938699;29;20186;-80
2021/12/31 06:06:50;;;;;;;12.45;3.53;;;11.50;99.90;;;;;;4938566;29;20044;-81
2021/12/31 06:09:16;;;;;;;11.02;3.40;;;11.50;99.90;;;;;;4938693;29;20445;-80
2021/12/31 06:11:42;;;;;;;9.13;3.28;;;11.50;99.90;;;;;;4938726;29;20492;-80
2021/12/31 06:14:11;;;;;;;7.35;3.38;;;11.50;99.90;;;;;;4939690;29;20044;-81
2021/12/31 06:16:42;;;;;;;9.55;3.05;;;11.40;99.90;;;;;;4939689;29;20504;-80
2021/12/31 06:19:11;;;;;;;11.60;2.90;;;11.50;99.90;;;;;;4939680;29;20070;-80
2021/12/31 06:21:39;;;;;;;9.05;3.67;;;11.40;99.90;;;;;;4938219;29;20051;-80
2021/12/31 06:24:06;;;;;;;8.23;2.88;;;11.50;99.90;;;;;;4938177;29;20054;-80
2021/12/31 06:26:32;;;;;;;9.68;4.47;;;11.40;99.90;;;;;;4939558;29;20060;-80
2021/12/31 06:28:58;;;;;;;10.55;3.08;;;11.50;99.90;;;;;;4938241;29;20087;-80
2021/12/31 06:31:24;;;;;;;9.13;3.15;;;11.40;99.90;;;;;;4938466;29;20035;-80
2021/12/31 06:33:50;;;;;;;18.48;4.10;;;11.40;99.90;;;;;;4938088;29;20403;-80
2021/12/31 06:36:17;;;;;;;12.75;3.58;;;11.40;99.90;;;;;;4938213;29;20059;-80
2021/12/31 06:38:43;;;;;;;11.00;2.83;;;11.40;99.90;;;;;;4938243;29;20051;-80
2021/12/31 06:41:09;;;;;;;10.15;3.30;;;11.40;99.90;;;;;;4937944;29;20138;-80
2021/12/31 06:43:35;;;;;;;11.55;3.60;;;11.40;99.90;;;;;;4937813;29;20134;-80
2021/12/31 06:46:00;;;;;;;12.68;3.30;;;11.30;99.90;;;;;;4938239;29;20040;-80
2021/12/31 06:48:26;;;;;;;12.68;3.28;;;11.30;99.90;;;;;;4937795;29;20063;-80
2021/12/31 06:50:52;;;;;;;12.10;3.10;;;11.30;99.90;;;;;;4937944;29;20047;-80
2021/12/31 06:53:18;;;;;;;11.52;3.50;;;11.30;99.90;;;;;;4937897;29;20142;-80
2021/12/31 06:55:43;;;;;;;8.63;3.30;;;11.30;99.90;;;;;;4937993;29;20052;-80
2021/12/31 06:58:09;;;;;;;15.13;3.33;;;11.30;99.90;;;;;;4937931;29;20087;-80
2021/12/31 07:00:35;;;;;;;9.98;2.92;;;11.20;99.90;;;;;;4938884;29;20055;-80
2021/12/31 07:03:11;;;;;;;12.88;3.35;;;11.20;99.90;;;;;;4937341;29;20122;-80
2021/12/31 07:05:39;;;;;;;9.52;3.00;;;11.20;99.90;;;;;;4938107;29;20095;-80
2021/12/31 07:08:05;;;;;;;11.38;3.45;;;11.20;99.90;;;;;;4938589;29;20487;-80
2021/12/31 07:10:31;;;;;;;8.25;3.33;;;11.10;99.90;;;;;;4937414;29;20054;-80
2021/12/31 07:13:13;;;;;;;8.65;3.38;;;11.10;99.90;;;;;;4937771;29;20554;-80
2021/12/31 07:15:39;;;;;;;9.35;3.50;;;11.10;99.90;;;;;;4938647;29;20091;-80
2021/12/31 07:18:05;;;;;;;9.55;3.40;;;11.10;99.90;;;;;;4938613;29;20122;-80
2021/12/31 07:20:30;;;;;;;10.10;3.17;;;11.10;99.90;;;;;;4937480;29;20134;-80
2021/12/31 07:22:56;;;;;;;11.00;3.42;;;11.10;99.90;;;;;;4937698;29;20139;-80
2021/12/31 07:25:22;;;;;;;8.73;3.42;;;11.10;99.90;;;;;;4938430;29;20043;-80
2021/12/31 07:27:50;;;;;;;10.05;3.40;;;11.00;99.90;;;;;;4938271;29;20146;-80
2021/12/31 07:30:16;;;;;;;11.20;3.17;;;11.00;99.90;;;;;;4937137;29;20058;-80
2021/12/31 07:32:42;;;;;;;9.40;3.00;;;11.00;99.90;;;;;;4936401;29;20044;-80
2021/12/31 07:35:08;;;;;;;9.48;3.28;;;10.90;99.90;;;;;;4937391;29;20039;-80
2021/12/31 07:37:34;;;;;;;12.52;4.03;;;10.90;99.90;;;;;;4937981;29;20141;-80
2021/12/31 07:40:03;;;;;;;12.20;3.72;;;10.90;99.90;;;;;;4938134;29;20451;-80
2021/12/31 07:42:29;;;;;;;7.63;3.58;;;10.90;99.90;;;;;;4936657;29;20114;-80
2021/12/31 07:44:55;;;;;;;7.18;3.38;;;10.80;99.90;;;;;;4936533;29;20444;-80
2021/12/31 07:47:21;;;;;;;10.23;3.90;;;10.80;99.90;;;;;;4936600;29;20051;-80
2021/12/31 07:49:47;;;;;;;9.95;3.45;;;10.80;99.90;;;;;;4936541;29;20507;-80
2021/12/31 07:52:12;;;;;;;10.30;3.63;;;10.70;99.90;;;;;;4937960;29;20047;-80
2021/12/31 07:54:38;;;;;;;7.53;3.92;;;10.80;99.90;;;;;;4937785;29;20118;-80
2021/12/31 07:57:04;;;;;;;8.40;3.90;;;10.70;99.90;;;;;;4937403;29;20048;-80
2021/12/31 07:59:30;;;;;;;12.93;3.95;;;10.70;99.90;;;;;;4937597;29;20058;-76
2021/12/31 08:01:55;;;;;;;12.95;4.28;;;10.70;99.90;;;;;;4936538;29;20079;-79
2021/12/31 08:04:21;;;;;;;9.77;3.42;;;10.70;99.90;;;;;;4935031;29;20058;-79
2021/12/31 08:06:46;;;;;;;12.05;3.75;;;10.70;99.90;;;;;;4927320;29;20040;-79
2021/12/31 08:09:12;;;;;;;8.98;4.05;;;10.70;99.90;;;;;;4918207;29;20047;-79
2021/12/31 08:11:39;;;;;;;7.30;3.90;;;10.70;99.90;;;;;;4916899;29;20063;-79
2021/12/31 08:14:05;;;;;;;12.07;3.60;;;10.70;99.90;;;;;;4916151;29;20048;-78
2021/12/31 08:16:31;;;;;;;13.73;3.53;;;10.80;99.90;;;;;;4918260;29;20048;-78
2021/12/31 08:18:56;;;;;;;14.20;4.07;;;10.80;99.90;;;;;;4917103;29;20048;-78
2021/12/31 08:21:22;;;;;;;7.70;3.50;;;10.80;99.90;;;;;;4916694;29;20465;-80
2021/12/31 08:23:48;;;;;;;13.75;3.88;;;10.80;99.90;;;;;;4916798;29;20052;-78
2021/12/31 08:26:14;;;;;;;11.20;3.67;;;10.80;99.90;;;;;;4916610;29;20080;-78
2021/12/31 08:28:40;;;;;;;11.40;3.58;;;10.80;99.90;;;;;;4918100;29;20091;-79
2021/12/31 08:31:06;;;;;;;15.63;4.65;;;10.80;99.90;;;;;;4916596;29;20408;-79
2021/12/31 08:33:32;;;;;;;12.73;4.00;;;10.80;99.90;;;;;;4916572;29;20051;-79
2021/12/31 08:35:58;;;;;;;9.88;4.10;;;10.90;99.90;;;;;;4916468;29;20044;-79
2021/12/31 08:38:24;;;;;;;11.07;3.90;;;10.90;99.90;;;;;;4916487;29;20048;-80
2021/12/31 08:40:50;;;;;;;12.80;3.78;;;10.90;99.90;;;;;;4916612;29;20048;-79
2021/12/31 08:43:16;;;;;;;15.98;4.15;;;10.90;99.90;;;;;;4916235;29;20067;-78
2021/12/31 08:45:42;;;;;;;13.02;3.67;;;11.00;99.90;;;;;;4916693;29;20052;-79
2021/12/31 08:48:07;;;;;;;11.98;3.83;;;11.00;99.90;;;;;;4916226;29;20048;-79
2021/12/31 08:50:34;;;;;;;8.93;3.67;;;11.10;99.90;;;;;;4916281;29;20107;-78
2021/12/31 08:53:00;;;;;;;12.35;3.30;;;11.10;99.90;;;;;;4917512;29;20126;-78
2021/12/31 08:55:25;;;;;;;14.45;3.97;;;11.10;99.90;;;;;;4917704;29;20114;-78
2021/12/31 08:57:51;;;;;;;11.13;3.97;;;11.20;99.90;;;;;;4917285;29;20496;-78
2021/12/31 09:00:17;;;;;;;18.40;4.70;;;11.20;99.90;;;;;;4926681;29;20051;-79
2021/12/31 09:02:45;;;;;;;11.85;3.38;;;11.20;99.90;;;;;;4916493;29;20055;-79
2021/12/31 09:05:12;;;;;;;10.95;3.20;;;11.20;99.90;;;;;;4916340;29;20032;-78
2021/12/31 09:07:37;;;;;;;16.40;4.28;;;11.20;99.90;;;;;;4915876;29;20051;-78
2021/12/31 09:10:05;;;;;;;19.35;4.18;;;11.20;99.90;;;;;;4917220;29;20048;-78
2021/12/31 09:12:31;;;;;;;11.43;4.97;;;11.20;99.90;;;;;;4915953;29;20046;-78
2021/12/31 09:14:57;;;;;;;16.83;3.95;;;11.20;99.90;;;;;;4916209;29;20056;-80
2021/12/31 09:17:22;;;;;;;19.75;4.45;;;11.20;99.90;;;;;;4920055;29;20695;-79
2021/12/31 09:19:49;;;;;;;14.48;5.05;;;11.10;99.90;;;;;;4923698;29;20054;-79
2021/12/31 09:22:15;;;;;;;14.10;4.10;;;11.10;99.90;;;;;;4921719;29;20419;-80
2021/12/31 09:24:41;;;;;;;14.85;3.92;;;11.10;99.90;;;;;;4921676;29;20480;-79
2021/12/31 09:27:07;;;;;;;15.48;4.40;;;11.10;99.90;;;;;;4922041;29;20054;-80
2021/12/31 09:29:34;;;;;;;14.07;4.40;;;11.00;99.90;;;;;;4922014;29;20123;-80
2021/12/31 09:31:59;;;;;;;14.63;4.20;;;11.00;99.90;;;;;;4922179;29;20424;-80
2021/12/31 09:34:25;;;;;;;17.60;5.50;;;11.00;99.90;;;;;;4922714;29;20040;-81
2021/12/31 09:36:51;;;;;;;14.43;4.28;;;11.00;99.90;;;;;;4925886;29;20036;-80
2021/12/31 09:39:16;;;;;;;20.25;5.88;;;11.00;99.90;;;;;;4921627;29;20052;-80
2021/12/31 09:41:43;;;;;;;13.43;4.43;;;11.00;99.90;;;;;;4921986;29;20071;-80
2021/12/31 09:44:10;;;;;;;21.40;6.32;;;11.00;99.90;;;;;;4925743;29;20066;-81
2021/12/31 09:46:36;;;;;;;17.77;5.60;;;10.90;99.90;;;;;;4917471;29;20071;-82
2021/12/31 09:49:02;;;;;;;14.73;4.65;;;10.90;99.90;;;;;;4915834;29;20493;-81
2021/12/31 09:51:28;;;;;;;17.92;5.15;;;10.90;99.90;;;;;;4915856;29;20044;-81
2021/12/31 09:53:58;;;;;;;17.58;4.72;;;10.90;99.90;;;;;;4920163;29;20050;-81
2021/12/31 09:56:25;;;;;;;16.60;5.00;;;10.90;99.90;;;;;;4933991;29;20079;-81
2021/12/31 09:58:51;;;;;;;15.10;4.35;;;10.90;99.90;;;;;;4933986;29;20044;-82
2021/12/31 10:01:16;;;;;;;18.58;5.18;;;10.90;99.90;;;;;;4934480;29;20051;-82
2021/12/31 10:03:57;;;;;;;19.92;5.25;;;10.90;99.90;;;;;;4934679;29;20040;-81
2021/12/31 10:06:24;;;;;;;14.18;4.38;;;10.90;99.90;;;;;;4934611;29;20115;-82
2021/12/31 10:08:50;;;;;;;17.10;5.68;;;10.80;99.90;;;;;;4933678;29;20051;-82
2021/12/31 10:11:24;;;;;;;16.92;5.50;;;10.90;99.90;;;;;;4933815;29;20189;-82
2021/12/31 10:14:05;;;;;;;12.05;4.70;;;10.90;99.90;;;;;;4932945;29;20504;-82
2021/12/31 10:16:40;;;;;;;22.10;4.93;;;10.80;99.90;;;;;;4933631;29;20443;-84
2021/12/31 10:19:07;;;;;;;18.48;5.68;;;10.80;99.90;;;;;;4934533;29;20660;-83
2021/12/31 10:21:49;;;;;;;19.52;5.28;;;10.80;99.90;;;;;;4934209;29;20048;-83
2021/12/31 10:24:32;;;;;;;16.83;4.07;;;10.80;99.90;;;;;;4934444;29;20107;-81
2021/12/31 10:27:00;;;;;;;;;;;10.80;99.90;;;;;;4934757;29;20054;-81
2021/12/31 10:29:26;;;;;;;15.98;4.43;;;10.80;99.90;;;;;;4934270;29;19927;-89
2021/12/31 10:31:53;;;;;;;15.52;5.43;;;10.80;99.90;;;;;;4933922;29;20103;-83
2021/12/31 10:34:33;;;;;;;14.30;4.63;;;10.80;99.90;;;;;;4934153;29;20062;-82
2021/12/31 10:37:02;;;;;;;18.60;6.40;;;10.80;99.90;;;;;;4935805;29;20090;-81
2021/12/31 10:39:31;;;;;;;19.38;4.35;;;10.80;99.90;;;;;;4937654;29;20130;-85
2021/12/31 10:42:00;;;;;;;17.48;5.05;;;10.80;99.90;;;;;;4937568;29;20488;-78
2021/12/31 10:44:49;;;;;;;11.00;4.32;;;10.80;99.90;;;;;;4938812;29;20484;-85
2021/12/31 10:47:22;;;;;;;14.32;4.97;;;10.80;99.90;;;;;;4930074;29;20082;-82
2021/12/31 10:50:00;;;;;;;16.25;5.43;;;10.80;99.90;;;;;;4938810;29;20055;-81
2021/12/31 10:52:45;;;;;;;14.93;5.03;;;10.90;99.90;;;;;;4937421;29;20058;-84
2021/12/31 10:57:43;;;;;;;12.20;5.20;;;10.80;99.90;;;;;;4938402;29;20094;-82
2021/12/31 11:00:10;;;;;;;14.57;5.45;;;10.80;99.90;;;;;;4937100;29;20111;-84
2021/12/31 11:02:37;;;;;;;14.85;5.65;;;10.80;99.90;;;;;;4936991;29;20047;-83
2021/12/31 11:05:05;;;;;;;12.13;5.57;;;10.80;99.90;;;;;;4938383;29;20400;-82
2021/12/31 11:07:31;;;;;;;14.65;4.93;;;10.80;99.90;;;;;;4937044;29;20052;-83
2021/12/31 11:09:58;;;;;;;11.55;4.60;;;10.80;99.90;;;;;;4937056;29;20051;-85
2021/12/31 11:12:27;;;;;;;18.83;5.07;;;10.70;99.90;;;;;;4937191;29;20139;-82
2021/12/31 11:14:53;;;;;;;12.90;4.88;;;10.70;99.90;;;;;;4938197;29;20044;-84
2021/12/31 11:17:19;;;;;;;14.88;5.40;;;10.70;99.90;;;;;;4936977;29;20127;-82
2021/12/31 11:19:48;;;;;;;12.48;4.78;;;10.70;99.90;;;;;;4936937;29;20127;-82
2021/12/31 11:22:14;;;;;;;13.15;4.88;;;10.80;99.90;;;;;;4938321;29;20055;-83
2021/12/31 11:24:40;;;;;;;10.90;5.35;;;10.70;99.90;;;;;;4938363;29;20047;-82
2021/12/31 11:27:32;;;;;;;12.23;4.82;;;10.70;99.90;;;;;;4936573;29;20046;-85
2021/12/31 11:29:59;;;;;;;13.15;4.80;;;10.60;99.90;;;;;;4938035;29;20079;-82
2021/12/31 11:33:00;;;;;;;12.23;4.47;;;10.60;99.90;;;;;;4936640;29;20043;-82
2021/12/31 11:35:58;;;;;;;15.50;4.50;;;10.70;99.90;;;;;;4936621;29;20071;-82
2021/12/31 11:38:24;;;;;;;12.18;5.00;;;10.70;99.90;;;;;;4936542;29;20052;-82
2021/12/31 11:41:03;;;;;;;14.80;5.18;;;10.60;99.90;;;;;;4936521;29;20051;-81
2021/12/31 11:43:30;;;;;;;19.27;4.95;;;10.70;99.90;;;;;;4936405;29;20531;-82
2021/12/31 11:46:19;;;;;;;14.80;4.85;;;10.60;99.90;;;;;;4937796;29;20058;-82
2021/12/31 11:51:12;;;;;;;15.48;5.30;;;10.60;99.90;;;;;;4937765;29;20047;-81
2021/12/31 11:54:06;;;;;;;17.35;5.00;;;10.60;99.90;;;;;;4936549;29;20051;-81
2021/12/31 11:56:43;;;;;;;20.30;5.35;;;10.60;99.90;;;;;;4922573;29;20131;-82
2021/12/31 11:59:09;;;;;;;13.35;5.35;;;10.60;99.90;;;;;;4936222;29;20055;-82
2021/12/31 12:01:43;;;;;;;11.63;4.60;;;10.60;99.90;;;;;;4936437;29;20048;-82
2021/12/31 12:04:22;;;;;;;15.07;5.03;;;10.60;99.90;;;;;;4937613;29;20043;-82
2021/12/31 12:07:23;;;;;;;18.20;5.90;;;10.60;99.90;;;;;;4936258;29;20039;-82
2021/12/31 12:09:48;;;;;;;18.48;5.60;;;10.70;99.90;;;;;;4936193;29;20067;-82
2021/12/31 12:12:21;;;;;;;18.15;4.47;;;10.70;99.90;;;;;;4936147;29;20091;-82
2021/12/31 12:14:48;;;;;;;11.52;4.75;;;10.70;99.90;;;;;;4935876;29;20064;-82
2021/12/31 12:17:39;;;;;;;16.10;4.38;;;10.70;99.90;;;;;;4937365;29;20051;-82
2021/12/31 12:20:08;;;;;;;11.02;4.35;;;10.70;99.90;;;;;;4935752;29;20055;-82
2021/12/31 12:22:44;;;;;;;11.35;4.32;;;10.70;99.90;;;;;;4935688;29;20039;-82
2021/12/31 12:25:14;;;;;;;11.30;4.63;;;10.70;99.90;;;;;;4936995;29;20047;-81
2021/12/31 12:27:41;;;;;;;8.48;4.18;;;10.70;99.90;;;;;;4935886;29;20463;-82
2021/12/31 12:30:11;;;;;;;8.80;4.30;;;10.70;99.90;;;;;;4935535;29;20047;-80
2021/12/31 12:35:27;;;;;;;8.88;2.97;;;10.70;99.90;;;;;;4935379;29;20052;-81
2021/12/31 12:38:00;;;;;;;8.20;3.90;;;10.70;99.90;;;;;;4935557;29;20172;-82
2021/12/31 12:40:39;;;;;;;;;;;10.70;99.90;;;;;;4937056;29;20036;-81
2021/12/31 12:43:20;;;;;;;8.95;4.22;;;10.70;99.90;;;;;;4935172;29;20374;-79
2021/12/31 12:45:51;;;;;;;10.23;4.18;;;10.70;99.90;;;;;;4935733;29;20110;-83
2021/12/31 12:48:27;;;;;;;9.93;4.78;;;10.60;99.90;;;;;;4936616;29;20074;-82
2021/12/31 12:50:53;;;;;;;16.00;4.80;;;10.60;99.90;;;;;;4935493;29;20123;-84
2021/12/31 12:53:24;;;;;;;13.57;5.22;;;10.60;99.90;;;;;;4935295;29;20444;-81